createdAt,value
2023-02-24T00:02:02.258Z,30.02
2023-02-24T00:04:32.762Z,28.70
2023-02-24T00:07:02.632Z,27.30
2023-02-24T00:09:36.194Z,27.10
2023-02-24T00:12:09.152Z,27.90
2023-02-24T00:14:39.836Z,28.00
2023-02-24T00:17:09.293Z,29.23
2023-02-24T00:19:39.047Z,29.13
2023-02-24T00:22:09.217Z,30.98
2023-02-24T00:24:39.034Z,30.40
2023-02-24T00:27:11.326Z,32.63
2023-02-24T00:29:42.714Z,30.45
2023-02-24T00:32:13.522Z,30.40
2023-02-24T00:34:43.473Z,29.20
2023-02-24T00:37:12.343Z,29.30
2023-02-24T00:39:44.316Z,28.25
2023-02-24T00:42:13.249Z,28.48
2023-02-24T00:44:44.927Z,28.25
2023-02-24T00:47:14.074Z,28.83
2023-02-24T00:49:43.719Z,29.85
2023-02-24T00:52:14.895Z,28.58
2023-02-24T00:54:45.183Z,28.17
2023-02-24T00:57:14.325Z,27.90
2023-02-24T00:59:47.534Z,27.00
2023-02-24T01:02:16.473Z,28.33
2023-02-24T01:04:45.642Z,27.00
2023-02-24T01:07:14.090Z,28.05
2023-02-24T01:09:44.286Z,26.40
2023-02-24T01:12:33.469Z,26.98
2023-02-24T01:15:03.377Z,25.65
2023-02-24T01:17:32.096Z,25.30
2023-02-24T01:20:15.141Z,25.15
2023-02-24T01:22:43.901Z,23.35
2023-02-24T01:25:13.688Z,24.85
2023-02-24T01:27:42.240Z,25.85
2023-02-24T01:30:16.526Z,24.98
2023-02-24T01:32:46.992Z,24.00
2023-02-24T01:35:15.901Z,26.75
2023-02-24T01:37:45.424Z,30.27
2023-02-24T01:40:21.601Z,28.50
2023-02-24T01:42:50.638Z,30.30
2023-02-24T01:45:28.824Z,30.27
2023-02-24T01:48:02.263Z,31.30
2023-02-24T01:50:32.997Z,33.20
2023-02-24T01:53:05.926Z,31.55
2023-02-24T01:55:39.314Z,31.52
2023-02-24T01:58:12.731Z,33.03
2023-02-24T02:00:45.652Z,32.30
2023-02-24T02:03:26.252Z,32.63
2023-02-24T02:05:59.481Z,32.13
2023-02-24T02:08:28.416Z,31.15
2023-02-24T02:11:04.130Z,29.45
2023-02-24T02:13:35.851Z,29.25
2023-02-24T02:16:44.137Z,29.17
2023-02-24T02:19:55.484Z,29.83
2023-02-24T02:23:06.696Z,28.90
2023-02-24T02:25:49.480Z,29.15
2023-02-24T02:28:49.492Z,29.92
2023-02-24T02:31:38.772Z,31.00
2023-02-24T02:34:21.195Z,30.05
2023-02-24T02:36:58.440Z,31.77
2023-02-24T02:39:35.028Z,31.75
2023-02-24T02:42:14.774Z,29.52
2023-02-24T02:44:56.194Z,29.33
2023-02-24T02:47:29.481Z,26.50
2023-02-24T02:50:08.199Z,24.45
2023-02-24T02:52:42.455Z,22.75
2023-02-24T02:55:15.200Z,22.52
2023-02-24T02:57:48.157Z,24.42
2023-02-24T03:00:21.597Z,22.30
2023-02-24T03:02:52.596Z,22.15
2023-02-24T03:05:29.834Z,23.15
2023-02-24T03:08:02.331Z,22.13
2023-02-24T03:10:34.364Z,22.33
2023-02-24T03:13:07.315Z,21.00
2023-02-24T03:15:36.181Z,20.50
2023-02-24T03:18:10.470Z,22.38
2023-02-24T03:20:43.987Z,21.15
2023-02-24T03:23:17.557Z,20.25
2023-02-24T03:25:53.367Z,20.67
2023-02-24T03:28:30.340Z,20.92
2023-02-24T03:31:03.782Z,21.90
2023-02-24T03:33:37.222Z,21.48
2023-02-24T03:36:07.207Z,19.55
2023-02-24T03:38:38.389Z,19.92
2023-02-24T03:41:11.447Z,22.42
2023-02-24T03:43:45.030Z,20.70
2023-02-24T03:46:16.000Z,20.58
2023-02-24T03:48:54.255Z,20.80
2023-02-24T03:51:24.734Z,22.00
2023-02-24T03:54:07.619Z,21.35
2023-02-24T03:56:47.127Z,21.17
2023-02-24T03:59:25.917Z,23.15
2023-02-24T04:01:59.305Z,21.85
2023-02-24T04:04:33.418Z,21.27
2023-02-24T04:07:11.654Z,21.15
2023-02-24T04:09:44.188Z,20.92
2023-02-24T04:12:19.977Z,20.35
2023-02-24T04:14:53.912Z,19.80
2023-02-24T04:17:27.990Z,21.42
2023-02-24T04:20:00.942Z,20.00
2023-02-24T04:22:33.116Z,19.73
2023-02-24T04:25:06.098Z,18.55
2023-02-24T04:27:38.573Z,17.23
2023-02-24T04:30:10.860Z,15.80
2023-02-24T04:32:42.964Z,14.75
2023-02-24T04:35:15.742Z,10.93
2023-02-24T04:37:45.832Z,9.25
2023-02-24T04:40:17.753Z,8.40
2023-02-24T04:42:50.213Z,8.55
2023-02-24T04:45:23.301Z,7.55
2023-02-24T04:47:53.533Z,7.20
2023-02-24T04:50:26.201Z,7.47
2023-02-24T04:52:58.612Z,6.13
2023-02-24T04:55:29.811Z,5.60
2023-02-24T04:57:59.416Z,5.50
2023-02-24T05:00:33.509Z,5.40
2023-02-24T05:03:04.068Z,4.90
2023-02-24T05:05:34.189Z,5.00
2023-02-24T05:08:07.064Z,5.40
2023-02-24T05:10:39.120Z,4.07
2023-02-24T05:13:09.267Z,5.22
2023-02-24T05:15:41.992Z,4.50
2023-02-24T05:18:14.875Z,3.80
2023-02-24T05:21:04.529Z,4.28
2023-02-24T05:23:39.401Z,4.40
2023-02-24T05:26:09.867Z,5.50
2023-02-24T05:28:38.849Z,6.30
2023-02-24T05:31:09.533Z,7.80
2023-02-24T05:33:38.916Z,7.15
2023-02-24T05:36:10.020Z,8.05
2023-02-24T05:38:41.020Z,8.65
2023-02-24T05:41:16.880Z,8.88
2023-02-24T05:43:53.304Z,8.45
2023-02-24T05:46:28.617Z,9.93
2023-02-24T05:48:58.244Z,10.43
2023-02-24T05:51:27.045Z,10.25
2023-02-24T05:53:56.847Z,11.20
2023-02-24T05:56:27.530Z,10.23
2023-02-24T05:59:02.491Z,10.57
2023-02-24T06:01:32.319Z,11.50
2023-02-24T06:04:05.985Z,10.48
2023-02-24T06:06:36.409Z,12.75
2023-02-24T06:09:10.856Z,10.93
2023-02-24T06:11:40.749Z,10.18
2023-02-24T06:14:10.200Z,10.10
2023-02-24T06:16:41.118Z,10.43
2023-02-24T06:19:10.841Z,9.07
2023-02-24T06:21:41.370Z,9.63
2023-02-24T06:24:16.117Z,10.75
2023-02-24T06:26:45.401Z,10.18
2023-02-24T06:29:15.927Z,10.88
2023-02-24T06:31:45.211Z,10.60
2023-02-24T06:34:15.288Z,10.27
2023-02-24T06:36:43.776Z,11.25
2023-02-24T06:39:14.792Z,9.60
2023-02-24T06:41:43.668Z,8.70
2023-02-24T06:44:12.074Z,9.95
2023-02-24T06:46:41.383Z,10.00
2023-02-24T06:49:10.007Z,9.60
2023-02-24T06:51:39.193Z,10.80
2023-02-24T06:54:07.555Z,10.07
2023-02-24T06:56:40.611Z,8.80
2023-02-24T06:59:12.756Z,12.38
2023-02-24T07:01:45.399Z,11.80
2023-02-24T07:04:21.090Z,9.60
2023-02-24T07:06:52.914Z,7.07
2023-02-24T07:09:24.450Z,5.35
2023-02-24T07:12:02.906Z,4.22
2023-02-24T07:14:32.508Z,4.60
2023-02-24T07:17:02.397Z,2.60
2023-02-24T07:19:32.500Z,3.10
2023-02-24T07:22:09.684Z,2.80
2023-02-24T07:24:41.141Z,2.90
2023-02-24T07:27:22.026Z,3.80
2023-02-24T07:29:52.939Z,2.30
2023-02-24T07:32:23.511Z,3.10
2023-02-24T07:34:55.323Z,2.92
2023-02-24T07:37:24.654Z,2.70
2023-02-24T07:39:56.110Z,3.25
2023-02-24T07:42:35.391Z,3.30
2023-02-24T07:45:04.894Z,3.28
2023-02-24T07:47:35.961Z,3.03
2023-02-24T07:50:10.704Z,2.78
2023-02-24T07:52:39.156Z,2.80
2023-02-24T07:55:12.937Z,3.33
2023-02-24T07:57:46.631Z,3.20
2023-02-24T08:00:28.427Z,2.50
2023-02-24T08:03:00.345Z,3.75
2023-02-24T08:05:30.837Z,2.83
2023-02-24T08:07:59.346Z,3.28
2023-02-24T08:10:28.244Z,3.05
2023-02-24T08:13:03.351Z,3.00
2023-02-24T08:15:34.571Z,2.70
2023-02-24T08:18:03.132Z,2.70
2023-02-24T08:20:36.483Z,3.53
2023-02-24T08:23:08.738Z,2.70
2023-02-24T08:25:38.773Z,3.47
2023-02-24T08:28:11.702Z,2.60
2023-02-24T08:30:45.819Z,2.88
2023-02-24T08:33:20.322Z,2.75
2023-02-24T08:36:01.493Z,3.28
2023-02-24T08:38:40.148Z,5.20
2023-02-24T08:41:18.257Z,3.40
2023-02-24T08:43:50.338Z,3.95
2023-02-24T08:46:26.568Z,8.50
2023-02-24T08:48:57.532Z,5.07
2023-02-24T08:51:29.936Z,6.20
2023-02-24T08:54:00.816Z,8.85
2023-02-24T08:56:31.098Z,4.45
2023-02-24T08:59:07.005Z,9.45
2023-02-24T09:01:38.005Z,9.50
2023-02-24T09:04:09.879Z,10.68
2023-02-24T09:06:44.282Z,6.30
2023-02-24T09:09:22.763Z,7.13
2023-02-24T09:11:57.395Z,9.35
2023-02-24T09:14:29.658Z,10.55
2023-02-24T09:17:06.027Z,7.35
2023-02-24T09:20:02.084Z,9.27
2023-02-24T09:22:32.364Z,6.60
2023-02-24T09:25:26.783Z,6.95
2023-02-24T09:28:08.407Z,6.03
2023-02-24T09:30:51.240Z,7.53
2023-02-24T09:33:22.637Z,3.25
2023-02-24T09:36:03.628Z,4.32
2023-02-24T09:38:52.316Z,4.30
2023-02-24T09:41:32.438Z,5.05
2023-02-24T09:44:07.787Z,4.10
2023-02-24T09:46:54.208Z,3.97
2023-02-24T09:49:34.612Z,3.28
2023-02-24T09:52:09.137Z,3.55
2023-02-24T09:54:37.765Z,5.65
2023-02-24T09:57:17.021Z,4.32
2023-02-24T10:00:01.363Z,7.70
2023-02-24T10:02:44.642Z,2.72
2023-02-24T10:05:27.427Z,2.55
2023-02-24T10:07:57.690Z,2.30
2023-02-24T10:10:29.167Z,2.45
2023-02-24T10:13:13.288Z,2.20
2023-02-24T10:15:59.220Z,2.63
2023-02-24T10:18:35.087Z,2.20
2023-02-24T10:21:15.643Z,3.50
2023-02-24T10:24:05.763Z,3.65
2023-02-24T10:26:51.223Z,3.47
2023-02-24T10:29:39.452Z,3.20
2023-02-24T10:32:24.682Z,2.95
2023-02-24T10:34:54.999Z,2.30
2023-02-24T10:37:29.581Z,2.60
2023-02-24T10:40:00.305Z,2.80
2023-02-24T10:42:31.984Z,3.30
2023-02-24T10:45:18.018Z,3.83
2023-02-24T10:47:56.875Z,3.40
2023-02-24T10:50:32.193Z,3.03
2023-02-24T10:53:26.617Z,2.95
2023-02-24T10:56:15.374Z,2.10
2023-02-24T10:58:56.845Z,2.72
2023-02-24T11:01:40.952Z,2.63
2023-02-24T11:04:33.517Z,2.83
2023-02-24T11:07:11.819Z,4.00
2023-02-24T11:09:52.221Z,2.30
2023-02-24T11:12:41.180Z,2.55
2023-02-24T11:15:37.796Z,2.53
2023-02-24T11:18:08.929Z,1.90
2023-02-24T11:20:49.097Z,2.00
2023-02-24T11:23:23.429Z,1.50
2023-02-24T11:25:54.560Z,2.05
2023-02-24T11:28:42.725Z,3.83
2023-02-24T11:31:25.402Z,3.22
2023-02-24T11:34:05.435Z,2.53
2023-02-24T11:36:44.753Z,2.05
2023-02-24T11:39:43.683Z,4.95
2023-02-24T11:42:18.557Z,1.98
2023-02-24T11:44:54.661Z,1.80
2023-02-24T11:47:29.207Z,1.70
2023-02-24T11:50:07.002Z,1.70
2023-02-24T11:52:39.873Z,1.50
2023-02-24T11:55:20.761Z,2.60
2023-02-24T11:57:55.765Z,1.60
2023-02-24T12:00:28.118Z,1.50
2023-02-24T12:03:04.162Z,1.80
2023-02-24T12:05:37.196Z,1.83
2023-02-24T12:08:12.101Z,2.10
2023-02-24T12:10:47.763Z,2.22
2023-02-24T12:13:24.844Z,2.35
2023-02-24T12:16:00.492Z,2.40
2023-02-24T12:18:38.049Z,1.70
2023-02-24T12:21:10.320Z,1.60
2023-02-24T12:23:41.187Z,3.20
2023-02-24T12:26:20.131Z,3.00
2023-02-24T12:29:18.800Z,1.45
2023-02-24T12:31:57.573Z,4.45
2023-02-24T12:34:43.140Z,1.85
2023-02-24T12:37:36.116Z,1.90
2023-02-24T12:40:14.183Z,2.03
2023-02-24T12:42:50.522Z,2.40
2023-02-24T12:45:23.859Z,2.20
2023-02-24T12:48:05.070Z,2.47
2023-02-24T12:50:44.058Z,2.50
2023-02-24T12:53:20.133Z,2.53
2023-02-24T12:56:11.715Z,2.70
2023-02-24T12:58:46.332Z,2.75
2023-02-24T13:01:25.851Z,3.15
2023-02-24T13:04:23.403Z,2.88
2023-02-24T13:07:09.895Z,3.15
2023-02-24T13:09:48.389Z,3.95
2023-02-24T13:12:21.679Z,3.85
2023-02-24T13:14:52.617Z,4.90
2023-02-24T13:17:24.560Z,5.05
2023-02-24T13:19:54.337Z,4.38
2023-02-24T13:22:31.572Z,4.90
2023-02-24T13:25:18.951Z,3.78
2023-02-24T13:27:59.684Z,4.00
2023-02-24T13:30:47.838Z,4.43
2023-02-24T13:33:29.823Z,4.53
2023-02-24T13:36:13.563Z,3.83
2023-02-24T13:38:45.693Z,4.40
2023-02-24T13:41:40.990Z,4.93
2023-02-24T13:44:27.866Z,4.10
2023-02-24T13:47:43.490Z,4.75
2023-02-24T13:50:25.540Z,5.38
2023-02-24T13:53:31.746Z,4.93
2023-02-24T13:56:12.113Z,5.93
2023-02-24T13:59:08.807Z,5.93
2023-02-24T14:01:49.697Z,5.63
2023-02-24T14:04:24.746Z,5.95
2023-02-24T14:06:54.956Z,6.43
2023-02-24T14:09:29.810Z,5.95
2023-02-24T14:12:04.724Z,5.88
2023-02-24T14:14:33.668Z,5.85
2023-02-24T14:17:02.247Z,5.85
2023-02-24T14:19:32.257Z,5.60
2023-02-24T14:22:03.335Z,5.07
2023-02-24T14:24:31.724Z,5.50
2023-02-24T14:27:06.447Z,6.55
2023-02-24T14:29:44.246Z,5.10
2023-02-24T14:32:22.000Z,7.05
2023-02-24T14:34:56.402Z,6.28
2023-02-24T14:37:27.856Z,6.32
2023-02-24T14:39:58.119Z,7.10
2023-02-24T14:42:28.280Z,7.03
2023-02-24T14:44:58.709Z,6.65
2023-02-24T14:47:29.877Z,7.07
2023-02-24T14:50:02.484Z,7.13
2023-02-24T14:52:37.025Z,6.35
2023-02-24T14:55:09.378Z,6.43
2023-02-24T14:57:43.438Z,6.38
2023-02-24T15:00:22.115Z,6.50
2023-02-24T15:02:54.713Z,6.40
2023-02-24T15:05:25.297Z,6.30
2023-02-24T15:07:53.838Z,7.15
2023-02-24T15:10:24.681Z,6.97
2023-02-24T15:12:59.194Z,6.10
2023-02-24T15:15:34.254Z,6.85
2023-02-24T15:18:05.334Z,6.10
2023-02-24T15:20:38.404Z,6.00
2023-02-24T15:23:07.462Z,7.05
2023-02-24T15:25:46.066Z,6.65
2023-02-24T15:28:25.950Z,6.45
2023-02-24T15:31:02.413Z,6.47
2023-02-24T15:33:36.336Z,6.90
2023-02-24T15:36:14.534Z,6.00
2023-02-24T15:38:44.582Z,7.35
2023-02-24T15:41:14.918Z,6.32
2023-02-24T15:43:48.614Z,6.28
2023-02-24T15:46:23.712Z,6.50
2023-02-24T15:48:54.204Z,6.28
2023-02-24T15:51:36.289Z,6.63
2023-02-24T15:54:07.673Z,6.05
2023-02-24T15:56:39.841Z,6.35
2023-02-24T15:59:08.499Z,7.63
2023-02-24T16:01:36.907Z,7.03
2023-02-24T16:04:05.891Z,5.45
2023-02-24T16:06:41.543Z,6.45
2023-02-24T16:09:15.531Z,7.60
2023-02-24T16:11:47.873Z,6.45
2023-02-24T16:14:18.714Z,7.80
2023-02-24T16:16:47.333Z,7.72
2023-02-24T16:19:36.393Z,7.03
2023-02-24T16:22:37.245Z,7.95
2023-02-24T16:25:22.043Z,7.00
2023-02-24T16:27:57.473Z,6.53
2023-02-24T16:33:24.338Z,6.55
2023-02-24T16:35:56.537Z,7.07
2023-02-24T16:38:28.857Z,6.28
2023-02-24T16:41:05.584Z,6.72
2023-02-24T16:43:37.789Z,8.02
2023-02-24T16:46:08.577Z,7.05
2023-02-24T16:48:42.710Z,6.68
2023-02-24T16:51:12.954Z,6.50
2023-02-24T16:53:41.632Z,7.70
2023-02-24T16:56:12.551Z,7.70
2023-02-24T16:58:41.559Z,7.57
2023-02-24T17:01:13.341Z,7.10
2023-02-24T17:03:45.493Z,7.35
2023-02-24T17:06:13.993Z,7.30
2023-02-24T17:08:44.111Z,7.35
2023-02-24T17:11:15.057Z,7.85
2023-02-24T17:13:43.904Z,6.93
2023-02-24T17:16:16.544Z,7.05
2023-02-24T17:18:48.472Z,8.02
2023-02-24T17:21:18.202Z,7.75
2023-02-24T17:23:51.485Z,8.25
2023-02-24T17:26:21.959Z,7.78
2023-02-24T17:28:56.229Z,6.88
2023-02-24T17:31:31.943Z,8.52
2023-02-24T17:34:04.092Z,8.00
2023-02-24T17:36:33.894Z,8.02
2023-02-24T17:39:04.834Z,7.88
2023-02-24T17:41:34.933Z,8.30
2023-02-24T17:44:03.642Z,7.70
2023-02-24T17:46:32.365Z,8.05
2023-02-24T17:49:08.086Z,7.85
2023-02-24T17:51:47.894Z,8.43
2023-02-24T17:54:19.200Z,7.93
2023-02-24T17:57:43.454Z,7.63
2023-02-24T18:00:56.426Z,7.13
2023-02-24T18:03:55.352Z,6.30
2023-02-24T18:06:24.482Z,5.70
2023-02-24T18:09:00.998Z,6.03
2023-02-24T18:11:52.251Z,6.47
2023-02-24T18:17:32.388Z,6.43
2023-02-24T18:20:00.845Z,6.60
2023-02-24T18:22:31.954Z,6.28
2023-02-24T18:25:01.115Z,5.70
2023-02-24T18:27:29.588Z,6.53
2023-02-24T18:30:00.544Z,5.78
2023-02-24T18:32:28.961Z,6.00
2023-02-24T18:34:58.832Z,5.82
2023-02-24T18:37:27.082Z,5.80
2023-02-24T18:39:55.528Z,5.22
2023-02-24T18:42:23.923Z,4.85
2023-02-24T18:44:52.441Z,5.20
2023-02-24T18:47:23.754Z,4.70
2023-02-24T18:49:51.985Z,4.15
2023-02-24T18:52:21.755Z,5.15
2023-02-24T18:54:50.554Z,4.75
2023-02-24T18:57:18.987Z,3.85
2023-02-24T18:59:50.676Z,4.32
2023-02-24T19:02:25.133Z,4.65
2023-02-24T19:04:53.713Z,4.28
2023-02-24T19:07:23.484Z,4.60
2023-02-24T19:09:52.039Z,3.85
2023-02-24T19:12:21.452Z,3.63
2023-02-24T19:14:52.832Z,4.10
2023-02-24T19:17:21.601Z,3.45
2023-02-24T19:19:55.895Z,4.07
2023-02-24T19:22:25.671Z,3.80
2023-02-24T19:24:54.032Z,4.25
2023-02-24T19:27:25.435Z,4.20
2023-02-24T19:29:56.338Z,3.97
2023-02-24T19:32:27.414Z,2.85
2023-02-24T19:34:58.665Z,2.90
2023-02-24T19:37:31.197Z,3.22
2023-02-24T19:40:06.124Z,2.80
2023-02-24T19:42:37.321Z,2.60
2023-02-24T19:45:06.391Z,2.80
2023-02-24T19:47:37.300Z,2.25
2023-02-24T19:50:14.701Z,2.80
2023-02-24T19:52:44.753Z,2.15
2023-02-24T19:55:14.087Z,2.25
2023-02-24T19:57:45.507Z,2.60
2023-02-24T20:00:14.564Z,2.17
2023-02-24T20:02:42.867Z,2.75
2023-02-24T20:05:11.380Z,2.97
2023-02-24T20:07:44.392Z,3.30
2023-02-24T20:10:14.293Z,3.95
2023-02-24T20:12:42.745Z,2.88
2023-02-24T20:15:12.346Z,2.67
2023-02-24T20:17:40.999Z,3.05
2023-02-24T20:20:13.145Z,2.40
2023-02-24T20:22:41.537Z,2.58
2023-02-24T20:25:12.722Z,2.47
2023-02-24T20:27:43.700Z,2.78
2023-02-24T20:30:13.654Z,2.38
2023-02-24T20:32:42.161Z,2.20
2023-02-24T20:35:13.830Z,1.80
2023-02-24T20:37:42.486Z,1.30
2023-02-24T20:40:13.837Z,1.80
2023-02-24T20:42:42.422Z,1.10
2023-02-24T20:45:12.392Z,1.45
2023-02-24T20:47:43.984Z,1.35
2023-02-24T20:50:12.509Z,1.40
2023-02-24T20:52:40.993Z,1.10
2023-02-24T20:55:10.076Z,1.40
2023-02-24T20:57:40.969Z,1.30
2023-02-24T21:00:13.661Z,1.50
2023-02-24T21:02:42.696Z,1.30
2023-02-24T21:05:26.291Z,1.70
2023-02-24T21:07:55.111Z,1.55
2023-02-24T21:10:25.156Z,1.67
2023-02-24T21:12:59.317Z,1.70
2023-02-24T21:15:27.939Z,1.73
2023-02-24T21:17:56.468Z,2.60
2023-02-24T21:20:26.671Z,2.45
2023-02-24T21:22:55.400Z,2.80
2023-02-24T21:25:24.029Z,2.67
2023-02-24T21:27:52.459Z,3.65
2023-02-24T21:30:22.395Z,3.70
2023-02-24T21:32:50.859Z,3.85
2023-02-24T21:35:19.467Z,3.63
2023-02-24T21:37:50.714Z,3.47
2023-02-24T21:40:19.524Z,4.50
2023-02-24T21:42:47.948Z,4.95
2023-02-24T21:45:16.773Z,5.10
2023-02-24T21:47:47.192Z,4.18
2023-02-24T21:50:16.072Z,4.65
2023-02-24T21:52:47.024Z,4.53
2023-02-24T21:55:16.338Z,5.10
2023-02-24T21:57:46.175Z,4.78
2023-02-24T22:00:20.000Z,5.47
2023-02-24T22:02:52.274Z,5.63
2023-02-24T22:05:20.624Z,5.35
2023-02-24T22:07:50.069Z,6.63
2023-02-24T22:10:20.988Z,5.30
2023-02-24T22:12:50.669Z,6.57
2023-02-24T22:15:19.251Z,5.70
2023-02-24T22:17:47.581Z,6.18
2023-02-24T22:20:17.556Z,6.20
2023-02-24T22:22:45.997Z,5.70
2023-02-24T22:25:14.236Z,6.00
2023-02-24T22:27:42.559Z,5.97
2023-02-24T22:30:12.807Z,7.35
2023-02-24T22:32:41.319Z,7.40
2023-02-24T22:35:10.446Z,7.20
2023-02-24T22:37:40.976Z,7.32
2023-02-24T22:40:10.674Z,7.55
2023-02-24T22:42:39.196Z,7.97
2023-02-24T22:45:09.275Z,8.50
2023-02-24T22:47:37.830Z,8.20
2023-02-24T22:50:10.389Z,8.60
2023-02-24T22:52:40.413Z,9.40
2023-02-24T22:55:10.116Z,10.35
2023-02-24T22:57:46.112Z,9.35
2023-02-24T23:00:20.329Z,8.82
2023-02-24T23:02:48.919Z,8.35
2023-02-24T23:05:17.667Z,9.00
2023-02-24T23:07:48.547Z,9.20
2023-02-24T23:10:20.884Z,7.78
2023-02-24T23:12:53.154Z,7.75
2023-02-24T23:15:21.570Z,7.90
2023-02-24T23:17:53.506Z,8.93
2023-02-24T23:20:21.998Z,7.97
2023-02-24T23:22:53.621Z,9.38
2023-02-24T23:25:25.524Z,8.07
2023-02-24T23:27:54.718Z,9.30
2023-02-24T23:30:24.581Z,9.18
2023-02-24T23:32:53.017Z,7.90
2023-02-24T23:35:21.579Z,9.73
2023-02-24T23:37:50.357Z,9.50
2023-02-24T23:40:26.148Z,8.55
2023-02-24T23:42:54.763Z,8.73
2023-02-24T23:45:24.164Z,8.20
2023-02-24T23:47:52.481Z,8.40
2023-02-24T23:50:21.210Z,8.95
2023-02-24T23:52:49.861Z,8.55
2023-02-24T23:55:19.838Z,8.50
2023-02-24T23:57:48.142Z,8.48
